sensor_id;sensor_type;location;lat;lon;timestamp;temperature;humidity
70154;DHT22;57519;51.494;-2.626;2023-04-25T00:02:11;5.72;89.83
70154;DHT22;57519;51.494;-2.626;2023-04-25T00:04:36;5.72;91.03
70154;DHT22;57519;51.494;-2.626;2023-04-25T00:07:03;5.78;91.08
70154;DHT22;57519;51.494;-2.626;2023-04-25T00:09:28;5.82;92.01
70154;DHT22;57519;51.494;-2.626;2023-04-25T00:11:54;5.85;92.35
70154;DHT22;57519;51.494;-2.626;2023-04-25T00:14:19;5.81;92.71
70154;DHT22;57519;51.494;-2.626;2023-04-25T00:16:45;5.73;92.65
70154;DHT22;57519;51.494;-2.626;2023-04-25T00:19:10;5.73;92.69
70154;DHT22;57519;51.494;-2.626;2023-04-25T00:21:36;5.76;92.96
70154;DHT22;57519;51.494;-2.626;2023-04-25T00:24:06;5.69;91.61
70154;DHT22;57519;51.494;-2.626;2023-04-25T00:26:31;5.69;91.49
70154;DHT22;57519;51.494;-2.626;2023-04-25T00:28:57;5.68;91.28
70154;DHT22;57519;51.494;-2.626;2023-04-25T00:31:22;5.68;91.04
70154;DHT22;57519;51.494;-2.626;2023-04-25T00:33:48;5.73;90.64
70154;DHT22;57519;51.494;-2.626;2023-04-25T00:36:13;5.82;90.15
70154;DHT22;57519;51.494;-2.626;2023-04-25T00:38:40;5.83;90.86
70154;DHT22;57519;51.494;-2.626;2023-04-25T00:41:08;5.89;91.04
70154;DHT22;57519;51.494;-2.626;2023-04-25T00:43:36;5.81;91.52
70154;DHT22;57519;51.494;-2.626;2023-04-25T00:46:01;5.82;91.67
70154;DHT22;57519;51.494;-2.626;2023-04-25T00:48:27;5.71;91.90
70154;DHT22;57519;51.494;-2.626;2023-04-25T00:50:54;5.71;92.34
70154;DHT22;57519;51.494;-2.626;2023-04-25T00:53:22;5.71;92.40
70154;DHT22;57519;51.494;-2.626;2023-04-25T00:55:48;5.69;92.69
70154;DHT22;57519;51.494;-2.626;2023-04-25T00:58:20;5.64;92.22
70154;DHT22;57519;51.494;-2.626;2023-04-25T01:00:47;5.62;91.17
70154;DHT22;57519;51.494;-2.626;2023-04-25T01:03:16;5.62;91.45
70154;DHT22;57519;51.494;-2.626;2023-04-25T01:05:43;5.64;91.95
70154;DHT22;57519;51.494;-2.626;2023-04-25T01:08:09;5.62;91.19
70154;DHT22;57519;51.494;-2.626;2023-04-25T01:10:35;5.61;91.98
70154;DHT22;57519;51.494;-2.626;2023-04-25T01:13:01;5.66;91.17
70154;DHT22;57519;51.494;-2.626;2023-04-25T01:15:27;5.66;91.20
70154;DHT22;57519;51.494;-2.626;2023-04-25T01:17:52;5.71;91.95
70154;DHT22;57519;51.494;-2.626;2023-04-25T01:20:21;5.68;92.47
70154;DHT22;57519;51.494;-2.626;2023-04-25T01:22:47;5.66;91.59
70154;DHT22;57519;51.494;-2.626;2023-04-25T01:25:12;5.69;92.02
70154;DHT22;57519;51.494;-2.626;2023-04-25T01:27:38;5.69;92.04
70154;DHT22;57519;51.494;-2.626;2023-04-25T01:30:05;5.69;92.45
70154;DHT22;57519;51.494;-2.626;2023-04-25T01:32:31;5.65;92.42
70154;DHT22;57519;51.494;-2.626;2023-04-25T01:35:07;5.64;91.79
70154;DHT22;57519;51.494;-2.626;2023-04-25T01:37:40;5.61;91.63
70154;DHT22;57519;51.494;-2.626;2023-04-25T01:40:07;5.59;91.45
70154;DHT22;57519;51.494;-2.626;2023-04-25T01:42:34;5.62;92.28
70154;DHT22;57519;51.494;-2.626;2023-04-25T01:45:01;5.58;92.39
70154;DHT22;57519;51.494;-2.626;2023-04-25T01:47:26;5.54;92.52
70154;DHT22;57519;51.494;-2.626;2023-04-25T01:49:52;5.55;92.93
70154;DHT22;57519;51.494;-2.626;2023-04-25T01:52:17;5.50;93.11
70154;DHT22;57519;51.494;-2.626;2023-04-25T01:54:43;5.47;93.34
70154;DHT22;57519;51.494;-2.626;2023-04-25T01:57:10;5.35;93.54
70154;DHT22;57519;51.494;-2.626;2023-04-25T01:59:36;5.34;93.65
70154;DHT22;57519;51.494;-2.626;2023-04-25T02:02:02;5.35;93.87
70154;DHT22;57519;51.494;-2.626;2023-04-25T02:04:32;5.35;93.92
70154;DHT22;57519;51.494;-2.626;2023-04-25T02:06:58;5.23;93.82
70154;DHT22;57519;51.494;-2.626;2023-04-25T02:09:23;5.22;91.48
70154;DHT22;57519;51.494;-2.626;2023-04-25T02:11:49;5.17;91.22
70154;DHT22;57519;51.494;-2.626;2023-04-25T02:14:14;5.19;91.06
70154;DHT22;57519;51.494;-2.626;2023-04-25T02:16:40;5.19;89.84
70154;DHT22;57519;51.494;-2.626;2023-04-25T02:19:05;5.14;90.36
70154;DHT22;57519;51.494;-2.626;2023-04-25T02:21:31;5.13;89.65
70154;DHT22;57519;51.494;-2.626;2023-04-25T02:23:57;5.16;89.67
70154;DHT22;57519;51.494;-2.626;2023-04-25T02:26:23;5.07;89.82
70154;DHT22;57519;51.494;-2.626;2023-04-25T02:28:50;5.09;89.48
70154;DHT22;57519;51.494;-2.626;2023-04-25T02:31:15;5.12;88.94
70154;DHT22;57519;51.494;-2.626;2023-04-25T02:33:41;5.07;89.41
70154;DHT22;57519;51.494;-2.626;2023-04-25T02:36:07;5.07;89.38
70154;DHT22;57519;51.494;-2.626;2023-04-25T02:38:32;5.01;89.39
70154;DHT22;57519;51.494;-2.626;2023-04-25T02:40:57;4.92;89.80
70154;DHT22;57519;51.494;-2.626;2023-04-25T02:43:23;4.80;90.05
70154;DHT22;57519;51.494;-2.626;2023-04-25T02:45:48;4.79;89.56
70154;DHT22;57519;51.494;-2.626;2023-04-25T02:48:14;4.69;90.12
70154;DHT22;57519;51.494;-2.626;2023-04-25T02:50:39;4.55;90.84
70154;DHT22;57519;51.494;-2.626;2023-04-25T02:53:04;4.45;91.24
70154;DHT22;57519;51.494;-2.626;2023-04-25T02:55:30;4.38;91.43
70154;DHT22;57519;51.494;-2.626;2023-04-25T02:57:55;4.21;91.74
70154;DHT22;57519;51.494;-2.626;2023-04-25T03:00:21;4.27;92.50
70154;DHT22;57519;51.494;-2.626;2023-04-25T03:02:47;4.20;92.99
70154;DHT22;57519;51.494;-2.626;2023-04-25T03:05:13;4.04;93.28
70154;DHT22;57519;51.494;-2.626;2023-04-25T03:07:38;4.03;93.55
70154;DHT22;57519;51.494;-2.626;2023-04-25T03:10:06;3.99;93.76
70154;DHT22;57519;51.494;-2.626;2023-04-25T03:12:31;3.76;93.40
70154;DHT22;57519;51.494;-2.626;2023-04-25T03:14:57;3.72;93.63
70154;DHT22;57519;51.494;-2.626;2023-04-25T03:17:22;3.68;93.82
70154;DHT22;57519;51.494;-2.626;2023-04-25T03:19:48;3.51;93.73
70154;DHT22;57519;51.494;-2.626;2023-04-25T03:22:13;3.42;93.90
70154;DHT22;57519;51.494;-2.626;2023-04-25T03:24:39;3.41;93.92
70154;DHT22;57519;51.494;-2.626;2023-04-25T03:27:05;3.30;93.78
70154;DHT22;57519;51.494;-2.626;2023-04-25T03:29:30;3.21;93.86
70154;DHT22;57519;51.494;-2.626;2023-04-25T03:31:56;3.18;94.01
70154;DHT22;57519;51.494;-2.626;2023-04-25T03:34:21;3.08;93.86
70154;DHT22;57519;51.494;-2.626;2023-04-25T03:36:47;3.03;93.87
70154;DHT22;57519;51.494;-2.626;2023-04-25T03:39:12;3.03;94.23
70154;DHT22;57519;51.494;-2.626;2023-04-25T03:41:38;2.99;94.22
70154;DHT22;57519;51.494;-2.626;2023-04-25T03:44:03;2.94;94.34
70154;DHT22;57519;51.494;-2.626;2023-04-25T03:46:29;2.96;94.41
70154;DHT22;57519;51.494;-2.626;2023-04-25T03:48:54;2.97;94.54
70154;DHT22;57519;51.494;-2.626;2023-04-25T03:51:19;2.87;94.32
70154;DHT22;57519;51.494;-2.626;2023-04-25T03:53:45;2.75;94.05
70154;DHT22;57519;51.494;-2.626;2023-04-25T03:56:10;2.75;94.49
70154;DHT22;57519;51.494;-2.626;2023-04-25T03:58:36;2.67;94.56
70154;DHT22;57519;51.494;-2.626;2023-04-25T04:01:01;2.62;94.40
70154;DHT22;57519;51.494;-2.626;2023-04-25T04:03:33;2.57;94.48
70154;DHT22;57519;51.494;-2.626;2023-04-25T04:05:59;2.55;94.50
70154;DHT22;57519;51.494;-2.626;2023-04-25T04:08:25;2.56;94.57
70154;DHT22;57519;51.494;-2.626;2023-04-25T04:10:50;2.49;94.43
70154;DHT22;57519;51.494;-2.626;2023-04-25T04:13:16;2.52;94.54
70154;DHT22;57519;51.494;-2.626;2023-04-25T04:15:41;2.50;94.42
70154;DHT22;57519;51.494;-2.626;2023-04-25T04:18:07;2.46;94.49
70154;DHT22;57519;51.494;-2.626;2023-04-25T04:20:32;2.52;94.60
70154;DHT22;57519;51.494;-2.626;2023-04-25T04:22:57;2.55;94.70
70154;DHT22;57519;51.494;-2.626;2023-04-25T04:25:23;2.66;95.03
70154;DHT22;57519;51.494;-2.626;2023-04-25T04:27:50;2.55;94.63
70154;DHT22;57519;51.494;-2.626;2023-04-25T04:30:23;2.53;94.61
70154;DHT22;57519;51.494;-2.626;2023-04-25T04:32:55;2.53;94.60
70154;DHT22;57519;51.494;-2.626;2023-04-25T04:35:21;2.46;94.51
70154;DHT22;57519;51.494;-2.626;2023-04-25T04:37:46;2.42;94.38
70154;DHT22;57519;51.494;-2.626;2023-04-25T04:40:13;2.38;94.40
70154;DHT22;57519;51.494;-2.626;2023-04-25T04:42:41;2.34;94.52
70154;DHT22;57519;51.494;-2.626;2023-04-25T04:45:07;2.27;94.50
70154;DHT22;57519;51.494;-2.626;2023-04-25T04:47:33;2.25;94.65
70154;DHT22;57519;51.494;-2.626;2023-04-25T04:49:59;2.22;94.71
70154;DHT22;57519;51.494;-2.626;2023-04-25T04:52:24;2.18;94.51
70154;DHT22;57519;51.494;-2.626;2023-04-25T04:54:50;2.13;94.40
70154;DHT22;57519;51.494;-2.626;2023-04-25T04:57:15;2.04;94.42
70154;DHT22;57519;51.494;-2.626;2023-04-25T04:59:41;2.08;94.65
70154;DHT22;57519;51.494;-2.626;2023-04-25T05:02:07;2.08;94.59
70154;DHT22;57519;51.494;-2.626;2023-04-25T05:04:32;2.21;94.79
70154;DHT22;57519;51.494;-2.626;2023-04-25T05:06:58;2.35;95.03
70154;DHT22;57519;51.494;-2.626;2023-04-25T05:09:23;2.42;95.07
70154;DHT22;57519;51.494;-2.626;2023-04-25T05:11:51;2.41;94.80
70154;DHT22;57519;51.494;-2.626;2023-04-25T05:14:17;2.34;94.46
70154;DHT22;57519;51.494;-2.626;2023-04-25T05:16:43;2.34;94.19
70154;DHT22;57519;51.494;-2.626;2023-04-25T05:19:09;2.25;94.16
70154;DHT22;57519;51.494;-2.626;2023-04-25T05:21:34;2.25;94.26
70154;DHT22;57519;51.494;-2.626;2023-04-25T05:24:00;2.10;93.88
70154;DHT22;57519;51.494;-2.626;2023-04-25T05:26:25;2.17;94.20
70154;DHT22;57519;51.494;-2.626;2023-04-25T05:28:51;2.10;94.17
70154;DHT22;57519;51.494;-2.626;2023-04-25T05:31:16;2.17;94.28
70154;DHT22;57519;51.494;-2.626;2023-04-25T05:33:42;2.14;94.07
70154;DHT22;57519;51.494;-2.626;2023-04-25T05:36:07;2.14;94.03
70154;DHT22;57519;51.494;-2.626;2023-04-25T05:38:33;2.25;94.19
70154;DHT22;57519;51.494;-2.626;2023-04-25T05:40:58;2.34;94.20
70154;DHT22;57519;51.494;-2.626;2023-04-25T05:43:24;2.41;94.11
70154;DHT22;57519;51.494;-2.626;2023-04-25T05:45:49;2.38;93.86
70154;DHT22;57519;51.494;-2.626;2023-04-25T05:48:15;2.42;93.96
70154;DHT22;57519;51.494;-2.626;2023-04-25T05:50:40;2.49;94.14
70154;DHT22;57519;51.494;-2.626;2023-04-25T05:53:06;2.57;94.40
70154;DHT22;57519;51.494;-2.626;2023-04-25T05:55:31;2.67;94.51
70154;DHT22;57519;51.494;-2.626;2023-04-25T05:57:57;2.82;94.56
70154;DHT22;57519;51.494;-2.626;2023-04-25T06:00:22;2.87;94.62
70154;DHT22;57519;51.494;-2.626;2023-04-25T06:02:49;3.03;94.60
70154;DHT22;57519;51.494;-2.626;2023-04-25T06:12:18;3.50;94.32
70154;DHT22;57519;51.494;-2.626;2023-04-25T06:18:15;3.51;93.94
70154;DHT22;57519;51.494;-2.626;2023-04-25T06:24:02;3.82;94.06
70154;DHT22;57519;51.494;-2.626;2023-04-25T06:29:28;3.96;93.64
70154;DHT22;57519;51.494;-2.626;2023-04-25T06:31:57;4.07;93.17
70154;DHT22;57519;51.494;-2.626;2023-04-25T06:34:22;4.09;93.17
70154;DHT22;57519;51.494;-2.626;2023-04-25T06:40:25;4.18;92.50
70154;DHT22;57519;51.494;-2.626;2023-04-25T06:49:42;4.47;87.69
70154;DHT22;57519;51.494;-2.626;2023-04-25T06:55:30;4.76;86.30
70154;DHT22;57519;51.494;-2.626;2023-04-25T07:21:58;5.44;81.22
70154;DHT22;57519;51.494;-2.626;2023-04-25T07:24:23;5.52;79.52
70154;DHT22;57519;51.494;-2.626;2023-04-25T08:09:06;6.57;72.50
70154;DHT22;57519;51.494;-2.626;2023-04-25T08:14:56;6.81;72.68
70154;DHT22;57519;51.494;-2.626;2023-04-25T08:41:42;7.78;69.55
70154;DHT22;57519;51.494;-2.626;2023-04-25T08:47:37;7.60;65.05
70154;DHT22;57519;51.494;-2.626;2023-04-25T08:53:32;7.48;65.23
70154;DHT22;57519;51.494;-2.626;2023-04-25T08:59:19;8.01;68.01
70154;DHT22;57519;51.494;-2.626;2023-04-25T09:05:07;8.14;64.32
70154;DHT22;57519;51.494;-2.626;2023-04-25T09:10:57;8.37;62.14
70154;DHT22;57519;51.494;-2.626;2023-04-25T09:17:04;8.14;60.61
70154;DHT22;57519;51.494;-2.626;2023-04-25T09:19:35;8.26;62.41
70154;DHT22;57519;51.494;-2.626;2023-04-25T09:22:02;8.17;58.88
70154;DHT22;57519;51.494;-2.626;2023-04-25T09:30:35;8.64;60.23
70154;DHT22;57519;51.494;-2.626;2023-04-25T09:33:09;8.26;59.55
70154;DHT22;57519;51.494;-2.626;2023-04-25T09:35:39;8.16;60.62
70154;DHT22;57519;51.494;-2.626;2023-04-25T09:38:12;8.59;61.66
70154;DHT22;57519;51.494;-2.626;2023-04-25T09:40:42;8.57;61.27
70154;DHT22;57519;51.494;-2.626;2023-04-25T09:43:22;9.01;59.69
70154;DHT22;57519;51.494;-2.626;2023-04-25T09:45:48;8.95;60.11
70154;DHT22;57519;51.494;-2.626;2023-04-25T09:48:21;8.95;61.56
70154;DHT22;57519;51.494;-2.626;2023-04-25T09:51:12;8.91;57.06
70154;DHT22;57519;51.494;-2.626;2023-04-25T09:53:45;8.67;57.19
70154;DHT22;57519;51.494;-2.626;2023-04-25T09:56:12;8.70;59.25
70154;DHT22;57519;51.494;-2.626;2023-04-25T09:58:42;9.23;60.03
70154;DHT22;57519;51.494;-2.626;2023-04-25T10:01:09;9.14;57.04
70154;DHT22;57519;51.494;-2.626;2023-04-25T10:03:37;8.91;54.92
70154;DHT22;57519;51.494;-2.626;2023-04-25T10:06:08;8.87;58.33
70154;DHT22;57519;51.494;-2.626;2023-04-25T10:08:35;9.04;60.15
70154;DHT22;57519;51.494;-2.626;2023-04-25T10:11:06;9.32;58.58
70154;DHT22;57519;51.494;-2.626;2023-04-25T10:13:46;9.25;56.57
70154;DHT22;57519;51.494;-2.626;2023-04-25T10:16:12;9.40;59.91
70154;DHT22;57519;51.494;-2.626;2023-04-25T10:18:38;9.36;57.89
70154;DHT22;57519;51.494;-2.626;2023-04-25T10:21:05;9.37;56.05
70154;DHT22;57519;51.494;-2.626;2023-04-25T10:23:32;9.63;53.50
70154;DHT22;57519;51.494;-2.626;2023-04-25T10:25:59;9.91;55.56
70154;DHT22;57519;51.494;-2.626;2023-04-25T10:28:25;9.85;56.79
70154;DHT22;57519;51.494;-2.626;2023-04-25T10:31:03;9.33;54.59
70154;DHT22;57519;51.494;-2.626;2023-04-25T10:33:39;9.53;58.27
70154;DHT22;57519;51.494;-2.626;2023-04-25T10:36:19;9.61;51.28
70154;DHT22;57519;51.494;-2.626;2023-04-25T10:38:47;9.70;53.25
70154;DHT22;57519;51.494;-2.626;2023-04-25T10:41:13;9.74;52.50
70154;DHT22;57519;51.494;-2.626;2023-04-25T10:43:41;9.88;52.74
70154;DHT22;57519;51.494;-2.626;2023-04-25T10:46:28;10.31;56.15
70154;DHT22;57519;51.494;-2.626;2023-04-25T10:48:58;10.45;55.50
70154;DHT22;57519;51.494;-2.626;2023-04-25T10:51:29;10.55;54.68
70154;DHT22;57519;51.494;-2.626;2023-04-25T10:54:03;10.31;51.13
70154;DHT22;57519;51.494;-2.626;2023-04-25T10:56:41;10.23;52.63
70154;DHT22;57519;51.494;-2.626;2023-04-25T10:59:16;9.99;53.17
70154;DHT22;57519;51.494;-2.626;2023-04-25T11:01:43;10.09;51.43
70154;DHT22;57519;51.494;-2.626;2023-04-25T11:09:33;10.32;51.44
70154;DHT22;57519;51.494;-2.626;2023-04-25T11:12:02;10.22;52.08
70154;DHT22;57519;51.494;-2.626;2023-04-25T11:14:31;10.74;52.80
70154;DHT22;57519;51.494;-2.626;2023-04-25T11:16:58;10.41;52.50
70154;DHT22;57519;51.494;-2.626;2023-04-25T11:19:25;9.74;52.64
70154;DHT22;57519;51.494;-2.626;2023-04-25T11:21:55;9.88;54.83
70154;DHT22;57519;51.494;-2.626;2023-04-25T11:24:34;10.53;55.18
70154;DHT22;57519;51.494;-2.626;2023-04-25T11:27:03;10.77;54.09
70154;DHT22;57519;51.494;-2.626;2023-04-25T11:29:30;10.81;52.14
70154;DHT22;57519;51.494;-2.626;2023-04-25T11:31:58;10.59;51.88
70154;DHT22;57519;51.494;-2.626;2023-04-25T11:34:30;10.73;51.76
70154;DHT22;57519;51.494;-2.626;2023-04-25T11:36:59;10.63;53.24
70154;DHT22;57519;51.494;-2.626;2023-04-25T11:39:26;10.18;49.97
70154;DHT22;57519;51.494;-2.626;2023-04-25T11:41:52;10.18;53.26
70154;DHT22;57519;51.494;-2.626;2023-04-25T11:44:19;10.83;55.67
70154;DHT22;57519;51.494;-2.626;2023-04-25T11:46:45;11.22;54.12
70154;DHT22;57519;51.494;-2.626;2023-04-25T11:49:11;11.32;52.25
70154;DHT22;57519;51.494;-2.626;2023-04-25T11:51:45;11.11;49.31
70154;DHT22;57519;51.494;-2.626;2023-04-25T11:54:11;10.76;50.66
70154;DHT22;57519;51.494;-2.626;2023-04-25T11:56:37;10.43;53.59
70154;DHT22;57519;51.494;-2.626;2023-04-25T11:59:05;10.36;53.97
70154;DHT22;57519;51.494;-2.626;2023-04-25T12:01:32;10.05;51.73
70154;DHT22;57519;51.494;-2.626;2023-04-25T12:04:18;10.04;51.52
70154;DHT22;57519;51.494;-2.626;2023-04-25T12:06:46;10.14;51.07
70154;DHT22;57519;51.494;-2.626;2023-04-25T12:09:20;10.28;51.55
70154;DHT22;57519;51.494;-2.626;2023-04-25T12:11:48;10.57;51.21
70154;DHT22;57519;51.494;-2.626;2023-04-25T12:14:21;10.52;47.70
70154;DHT22;57519;51.494;-2.626;2023-04-25T12:16:50;10.80;49.73
70154;DHT22;57519;51.494;-2.626;2023-04-25T12:19:17;10.89;49.59
70154;DHT22;57519;51.494;-2.626;2023-04-25T12:21:44;10.85;52.55
70154;DHT22;57519;51.494;-2.626;2023-04-25T12:26:49;10.66;47.72
70154;DHT22;57519;51.494;-2.626;2023-04-25T12:29:22;10.77;48.56
70154;DHT22;57519;51.494;-2.626;2023-04-25T12:31:50;10.89;50.25
70154;DHT22;57519;51.494;-2.626;2023-04-25T12:34:16;11.29;47.62
70154;DHT22;57519;51.494;-2.626;2023-04-25T12:36:42;11.70;51.81
70154;DHT22;57519;51.494;-2.626;2023-04-25T12:39:07;11.55;49.38
70154;DHT22;57519;51.494;-2.626;2023-04-25T12:41:33;11.14;50.19
70154;DHT22;57519;51.494;-2.626;2023-04-25T12:43:59;11.03;51.14
70154;DHT22;57519;51.494;-2.626;2023-04-25T12:46:24;10.98;49.87
70154;DHT22;57519;51.494;-2.626;2023-04-25T12:48:50;10.87;50.52
70154;DHT22;57519;51.494;-2.626;2023-04-25T12:51:15;10.77;50.27
70154;DHT22;57519;51.494;-2.626;2023-04-25T12:53:41;10.84;47.51
70154;DHT22;57519;51.494;-2.626;2023-04-25T12:56:07;11.27;49.96
70154;DHT22;57519;51.494;-2.626;2023-04-25T12:58:33;11.82;47.93
70154;DHT22;57519;51.494;-2.626;2023-04-25T13:00:59;12.08;48.42
70154;DHT22;57519;51.494;-2.626;2023-04-25T13:03:25;12.17;48.74
70154;DHT22;57519;51.494;-2.626;2023-04-25T13:05:51;11.90;46.74
70154;DHT22;57519;51.494;-2.626;2023-04-25T13:08:18;11.45;49.26
70154;DHT22;57519;51.494;-2.626;2023-04-25T13:10:43;11.40;50.25
70154;DHT22;57519;51.494;-2.626;2023-04-25T13:13:09;11.65;48.14
70154;DHT22;57519;51.494;-2.626;2023-04-25T13:15:34;11.40;45.86
70154;DHT22;57519;51.494;-2.626;2023-04-25T13:18:00;11.34;44.68
70154;DHT22;57519;51.494;-2.626;2023-04-25T13:20:26;11.45;45.26
70154;DHT22;57519;51.494;-2.626;2023-04-25T13:22:51;11.56;45.62
70154;DHT22;57519;51.494;-2.626;2023-04-25T13:25:17;11.86;45.77
70154;DHT22;57519;51.494;-2.626;2023-04-25T13:27:43;11.96;45.27
70154;DHT22;57519;51.494;-2.626;2023-04-25T13:30:09;12.10;48.34
70154;DHT22;57519;51.494;-2.626;2023-04-25T13:32:36;11.58;46.80
70154;DHT22;57519;51.494;-2.626;2023-04-25T13:35:06;11.43;47.85
70154;DHT22;57519;51.494;-2.626;2023-04-25T13:37:32;11.28;46.96
70154;DHT22;57519;51.494;-2.626;2023-04-25T13:40:02;11.34;50.65
70154;DHT22;57519;51.494;-2.626;2023-04-25T13:42:32;11.10;47.70
70154;DHT22;57519;51.494;-2.626;2023-04-25T13:44:58;11.14;45.91
70154;DHT22;57519;51.494;-2.626;2023-04-25T13:47:27;11.18;46.91
70154;DHT22;57519;51.494;-2.626;2023-04-25T13:49:52;11.32;45.98
70154;DHT22;57519;51.494;-2.626;2023-04-25T13:52:18;11.63;46.43
70154;DHT22;57519;51.494;-2.626;2023-04-25T13:54:44;11.48;46.19
70154;DHT22;57519;51.494;-2.626;2023-04-25T13:57:10;11.61;47.64
70154;DHT22;57519;51.494;-2.626;2023-04-25T13:59:36;11.79;48.92
70154;DHT22;57519;51.494;-2.626;2023-04-25T14:02:02;11.55;45.40
70154;DHT22;57519;51.494;-2.626;2023-04-25T14:04:28;11.69;49.03
70154;DHT22;57519;51.494;-2.626;2023-04-25T14:06:53;11.70;45.85
70154;DHT22;57519;51.494;-2.626;2023-04-25T14:09:19;12.01;45.73
70154;DHT22;57519;51.494;-2.626;2023-04-25T14:11:51;11.97;44.01
70154;DHT22;57519;51.494;-2.626;2023-04-25T14:14:18;11.66;45.67
70154;DHT22;57519;51.494;-2.626;2023-04-25T14:27:04;12.20;46.28
70154;DHT22;57519;51.494;-2.626;2023-04-25T14:29:29;12.55;47.16
70154;DHT22;57519;51.494;-2.626;2023-04-25T14:31:55;13.30;45.43
70154;DHT22;57519;51.494;-2.626;2023-04-25T14:34:23;12.76;43.84
70154;DHT22;57519;51.494;-2.626;2023-04-25T14:36:54;12.34;44.72
70154;DHT22;57519;51.494;-2.626;2023-04-25T15:05:42;11.98;46.36
70154;DHT22;57519;51.494;-2.626;2023-04-25T15:08:07;11.98;46.90
70154;DHT22;57519;51.494;-2.626;2023-04-25T15:10:33;12.03;44.94
70154;DHT22;57519;51.494;-2.626;2023-04-25T15:12:59;11.76;46.29
70154;DHT22;57519;51.494;-2.626;2023-04-25T15:15:24;12.10;46.38
70154;DHT22;57519;51.494;-2.626;2023-04-25T15:17:50;12.34;43.95
70154;DHT22;57519;51.494;-2.626;2023-04-25T15:20:15;12.31;44.62
70154;DHT22;57519;51.494;-2.626;2023-04-25T15:26:03;12.63;43.49
70154;DHT22;57519;51.494;-2.626;2023-04-25T15:28:28;12.62;43.14
70154;DHT22;57519;51.494;-2.626;2023-04-25T15:35:50;12.59;42.94
70154;DHT22;57519;51.494;-2.626;2023-04-25T15:38:16;12.35;44.85
70154;DHT22;57519;51.494;-2.626;2023-04-25T15:40:41;12.07;43.74
70154;DHT22;57519;51.494;-2.626;2023-04-25T15:43:07;12.44;44.74
70154;DHT22;57519;51.494;-2.626;2023-04-25T15:45:39;12.34;45.35
70154;DHT22;57519;51.494;-2.626;2023-04-25T15:48:05;12.32;44.50
70154;DHT22;57519;51.494;-2.626;2023-04-25T15:50:31;11.84;44.04
70154;DHT22;57519;51.494;-2.626;2023-04-25T15:52:57;11.67;46.41
70154;DHT22;57519;51.494;-2.626;2023-04-25T15:55:22;11.62;46.27
70154;DHT22;57519;51.494;-2.626;2023-04-25T15:57:51;11.80;44.80
70154;DHT22;57519;51.494;-2.626;2023-04-25T16:00:17;12.03;42.60
70154;DHT22;57519;51.494;-2.626;2023-04-25T16:02:44;12.17;45.43
70154;DHT22;57519;51.494;-2.626;2023-04-25T16:05:10;12.07;45.12
70154;DHT22;57519;51.494;-2.626;2023-04-25T16:07:38;12.10;46.08
70154;DHT22;57519;51.494;-2.626;2023-04-25T16:10:04;12.04;46.38
70154;DHT22;57519;51.494;-2.626;2023-04-25T16:12:30;11.94;45.25
70154;DHT22;57519;51.494;-2.626;2023-04-25T16:14:56;11.97;46.27
70154;DHT22;57519;51.494;-2.626;2023-04-25T16:17:25;11.91;44.89
70154;DHT22;57519;51.494;-2.626;2023-04-25T16:19:53;11.82;44.92
70154;DHT22;57519;51.494;-2.626;2023-04-25T16:22:19;11.79;46.94
70154;DHT22;57519;51.494;-2.626;2023-04-25T16:24:45;11.72;46.17
70154;DHT22;57519;51.494;-2.626;2023-04-25T16:27:10;11.94;46.54
70154;DHT22;57519;51.494;-2.626;2023-04-25T16:29:36;11.98;45.52
70154;DHT22;57519;51.494;-2.626;2023-04-25T16:32:02;12.10;45.81
70154;DHT22;57519;51.494;-2.626;2023-04-25T16:34:28;12.18;45.42
70154;DHT22;57519;51.494;-2.626;2023-04-25T16:36:55;12.28;45.87
70154;DHT22;57519;51.494;-2.626;2023-04-25T16:39:21;12.13;44.52
70154;DHT22;57519;51.494;-2.626;2023-04-25T16:41:47;12.45;45.31
70154;DHT22;57519;51.494;-2.626;2023-04-25T16:44:12;12.31;44.65
70154;DHT22;57519;51.494;-2.626;2023-04-25T16:46:38;12.21;44.02
70154;DHT22;57519;51.494;-2.626;2023-04-25T16:49:03;12.25;44.32
70154;DHT22;57519;51.494;-2.626;2023-04-25T16:51:29;11.93;43.79
70154;DHT22;57519;51.494;-2.626;2023-04-25T16:53:54;11.96;44.18
70154;DHT22;57519;51.494;-2.626;2023-04-25T16:56:20;12.08;44.68
70154;DHT22;57519;51.494;-2.626;2023-04-25T16:58:47;11.91;44.21
70154;DHT22;57519;51.494;-2.626;2023-04-25T17:01:13;11.56;44.52
70154;DHT22;57519;51.494;-2.626;2023-04-25T17:03:41;11.45;46.98
70154;DHT22;57519;51.494;-2.626;2023-04-25T17:06:08;11.11;45.77
70154;DHT22;57519;51.494;-2.626;2023-04-25T17:08:34;11.01;47.51
70154;DHT22;57519;51.494;-2.626;2023-04-25T17:11:00;11.06;47.01
70154;DHT22;57519;51.494;-2.626;2023-04-25T17:13:26;11.04;47.95
70154;DHT22;57519;51.494;-2.626;2023-04-25T17:15:52;11.14;47.48
70154;DHT22;57519;51.494;-2.626;2023-04-25T17:18:17;11.12;45.02
70154;DHT22;57519;51.494;-2.626;2023-04-25T17:20:42;11.22;46.48
70154;DHT22;57519;51.494;-2.626;2023-04-25T17:23:08;11.59;44.95
70154;DHT22;57519;51.494;-2.626;2023-04-25T17:25:33;11.70;45.02
70154;DHT22;57519;51.494;-2.626;2023-04-25T17:27:59;11.82;43.92
70154;DHT22;57519;51.494;-2.626;2023-04-25T17:30:27;11.98;44.07
70154;DHT22;57519;51.494;-2.626;2023-04-25T17:32:53;11.98;43.92
70154;DHT22;57519;51.494;-2.626;2023-04-25T17:35:19;12.01;42.10
70154;DHT22;57519;51.494;-2.626;2023-04-25T17:37:48;12.08;43.67
70154;DHT22;57519;51.494;-2.626;2023-04-25T17:40:19;12.24;47.78
70154;DHT22;57519;51.494;-2.626;2023-04-25T17:42:45;12.14;46.00
70154;DHT22;57519;51.494;-2.626;2023-04-25T17:47:49;11.76;45.05
70154;DHT22;57519;51.494;-2.626;2023-04-25T17:50:15;11.58;45.67
70154;DHT22;57519;51.494;-2.626;2023-04-25T17:52:42;11.35;45.35
70154;DHT22;57519;51.494;-2.626;2023-04-25T17:55:09;11.29;45.64
70154;DHT22;57519;51.494;-2.626;2023-04-25T17:57:35;11.18;47.59
70154;DHT22;57519;51.494;-2.626;2023-04-25T18:00:00;11.11;48.38
70154;DHT22;57519;51.494;-2.626;2023-04-25T18:05:04;10.85;46.08
70154;DHT22;57519;51.494;-2.626;2023-04-25T18:07:47;10.74;46.32
70154;DHT22;57519;51.494;-2.626;2023-04-25T18:10:25;10.62;46.35
70154;DHT22;57519;51.494;-2.626;2023-04-25T18:15:24;10.63;50.84
70154;DHT22;57519;51.494;-2.626;2023-04-25T18:17:53;10.35;51.08
70154;DHT22;57519;51.494;-2.626;2023-04-25T18:20:25;10.36;48.69
70154;DHT22;57519;51.494;-2.626;2023-04-25T18:22:55;10.39;48.96
70154;DHT22;57519;51.494;-2.626;2023-04-25T18:25:42;10.41;49.43
70154;DHT22;57519;51.494;-2.626;2023-04-25T18:28:07;10.41;49.10
70154;DHT22;57519;51.494;-2.626;2023-04-25T18:30:36;10.33;48.79
70154;DHT22;57519;51.494;-2.626;2023-04-25T18:33:02;10.25;48.78
70154;DHT22;57519;51.494;-2.626;2023-04-25T18:35:27;10.28;48.54
70154;DHT22;57519;51.494;-2.626;2023-04-25T18:37:56;10.18;49.33
70154;DHT22;57519;51.494;-2.626;2023-04-25T18:40:24;10.14;49.16
70154;DHT22;57519;51.494;-2.626;2023-04-25T18:42:57;10.09;49.80
70154;DHT22;57519;51.494;-2.626;2023-04-25T18:45:28;10.08;50.41
70154;DHT22;57519;51.494;-2.626;2023-04-25T18:48:01;9.93;50.98
70154;DHT22;57519;51.494;-2.626;2023-04-25T18:50:35;9.91;51.49
70154;DHT22;57519;51.494;-2.626;2023-04-25T18:53:10;9.94;49.79
70154;DHT22;57519;51.494;-2.626;2023-04-25T18:55:41;9.84;50.75
70154;DHT22;57519;51.494;-2.626;2023-04-25T18:58:09;9.76;51.34